createdAt,value
2022-11-05T00:03:00.350Z,77.94
2022-11-05T00:06:16.504Z,78.07
2022-11-05T00:09:32.774Z,77.83
2022-11-05T00:12:47.901Z,77.77
2022-11-05T00:16:03.192Z,77.64
2022-11-05T00:19:07.892Z,77.57
2022-11-05T00:22:23.074Z,77.39
2022-11-05T00:25:22.077Z,77.40
2022-11-05T00:28:19.721Z,77.17
2022-11-05T00:31:17.365Z,77.03
2022-11-05T00:34:15.052Z,77.02
2022-11-05T00:37:13.946Z,76.96
2022-11-05T00:40:11.452Z,77.29
2022-11-05T00:43:26.787Z,77.42
2022-11-05T00:46:24.734Z,77.09
2022-11-05T00:49:31.174Z,77.08
2022-11-05T00:52:46.299Z,76.85
2022-11-05T00:55:44.115Z,76.99
2022-11-05T00:58:41.571Z,76.84
2022-11-05T01:01:39.247Z,76.71
2022-11-05T01:04:36.748Z,76.64
2022-11-05T01:07:34.226Z,76.82
2022-11-05T01:10:31.672Z,76.84
2022-11-05T01:13:29.144Z,76.76
2022-11-05T01:16:26.598Z,76.76
2022-11-05T01:19:24.024Z,76.90
2022-11-05T01:22:21.485Z,76.75
2022-11-05T01:25:18.943Z,76.73
2022-11-05T01:28:16.487Z,76.55
2022-11-05T01:31:13.973Z,76.75
2022-11-05T01:34:11.443Z,76.47
2022-11-05T01:37:08.874Z,76.47
2022-11-05T01:40:06.501Z,76.36
2022-11-05T01:43:04.051Z,76.32
2022-11-05T01:46:01.488Z,76.48
2022-11-05T01:49:03.144Z,76.36
2022-11-05T01:52:01.148Z,76.35
2022-11-05T01:54:58.615Z,76.39
2022-11-05T01:57:56.045Z,76.30
2022-11-05T02:00:53.508Z,76.33
2022-11-05T02:03:50.980Z,76.25
2022-11-05T02:06:48.444Z,76.29
2022-11-05T02:09:45.895Z,76.32
2022-11-05T02:12:43.343Z,76.18
2022-11-05T02:15:40.793Z,76.21
2022-11-05T02:18:38.683Z,76.14
2022-11-05T02:21:36.114Z,76.30
2022-11-05T02:24:33.578Z,76.26
2022-11-05T02:27:31.049Z,76.29
2022-11-05T02:30:28.522Z,76.33
2022-11-05T02:33:25.973Z,76.27
2022-11-05T02:36:23.426Z,76.30
2022-11-05T02:39:20.930Z,76.38
2022-11-05T02:42:18.463Z,76.26
2022-11-05T02:45:15.938Z,76.34
2022-11-05T02:48:13.371Z,76.27
2022-11-05T02:51:10.817Z,76.21
2022-11-05T02:54:08.272Z,76.15
2022-11-05T02:57:05.730Z,76.17
2022-11-05T03:00:03.588Z,76.22
2022-11-05T03:03:01.107Z,76.16
2022-11-05T03:05:58.635Z,76.09
2022-11-05T03:08:56.114Z,76.13
2022-11-05T03:11:53.563Z,76.10
2022-11-05T03:14:51.196Z,76.12
2022-11-05T03:17:48.675Z,76.29
2022-11-05T03:20:46.237Z,76.29
2022-11-05T03:23:43.709Z,76.41
2022-11-05T03:26:41.480Z,76.47
2022-11-05T03:29:38.920Z,76.61
2022-11-05T03:32:36.396Z,76.60
2022-11-05T03:35:33.828Z,76.49
2022-11-05T03:38:31.273Z,76.43
2022-11-05T03:41:28.725Z,76.40
2022-11-05T03:44:26.199Z,76.46
2022-11-05T03:47:23.662Z,76.46
2022-11-05T03:50:21.119Z,76.45
2022-11-05T03:53:18.561Z,76.34
2022-11-05T03:56:15.982Z,76.34
2022-11-05T03:59:13.440Z,76.35
2022-11-05T04:02:11.038Z,76.20
2022-11-05T04:05:08.619Z,76.10
2022-11-05T04:08:23.867Z,76.07
2022-11-05T04:11:39.197Z,75.81
2022-11-05T04:14:36.662Z,75.98
2022-11-05T04:17:34.122Z,75.91
2022-11-05T04:20:49.347Z,75.83
2022-11-05T04:24:04.353Z,75.91
2022-11-05T04:27:01.814Z,75.87
2022-11-05T04:30:16.972Z,75.67
2022-11-05T04:33:14.809Z,75.76
2022-11-05T04:36:12.617Z,75.76
2022-11-05T04:39:10.075Z,75.76
2022-11-05T04:42:07.541Z,75.74
2022-11-05T04:45:05.060Z,75.82
2022-11-05T04:48:02.531Z,75.82
2022-11-05T04:51:00.028Z,75.89
2022-11-05T04:53:57.503Z,75.88
2022-11-05T04:56:54.954Z,75.95
2022-11-05T04:59:54.036Z,75.98
2022-11-05T05:02:51.789Z,75.95
2022-11-05T05:05:53.715Z,75.98
2022-11-05T05:08:51.536Z,75.91
2022-11-05T05:11:49.049Z,75.96
2022-11-05T05:14:46.500Z,76.01
2022-11-05T05:17:43.936Z,75.98
2022-11-05T05:20:59.441Z,75.98
2022-11-05T05:23:56.892Z,76.09
2022-11-05T05:26:54.336Z,75.98
2022-11-05T05:29:51.831Z,76.03
2022-11-05T05:32:49.309Z,76.06
2022-11-05T05:35:46.757Z,76.02
2022-11-05T05:38:44.263Z,76.03
2022-11-05T05:41:41.720Z,76.01
2022-11-05T05:44:39.168Z,76.12
2022-11-05T05:47:36.640Z,76.24
2022-11-05T05:50:34.100Z,76.19
2022-11-05T05:53:31.554Z,76.23
2022-11-05T05:56:29.004Z,76.30
2022-11-05T05:59:26.458Z,76.28
2022-11-05T06:02:24.053Z,76.28
2022-11-05T06:05:21.648Z,76.32
2022-11-05T06:08:19.097Z,76.40
2022-11-05T06:11:16.547Z,76.40
2022-11-05T06:14:14.023Z,76.47
2022-11-05T06:17:11.485Z,76.53
2022-11-05T06:20:09.630Z,76.56
2022-11-05T06:23:07.105Z,76.54
2022-11-05T06:26:04.549Z,76.55
2022-11-05T06:29:02.009Z,76.58
2022-11-05T06:31:59.569Z,76.63
2022-11-05T06:34:57.037Z,76.60
2022-11-05T06:37:54.496Z,76.61
2022-11-05T06:40:51.948Z,76.51
2022-11-05T06:43:49.423Z,76.56
2022-11-05T06:46:48.652Z,76.51
2022-11-05T06:49:46.407Z,76.47
2022-11-05T06:52:43.854Z,76.44
2022-11-05T06:55:41.340Z,76.25
2022-11-05T06:58:38.802Z,76.13
2022-11-05T07:01:37.588Z,76.23
2022-11-05T07:04:35.182Z,76.29
2022-11-05T07:07:32.639Z,76.39
2022-11-05T07:10:32.491Z,76.26
2022-11-05T07:13:29.935Z,76.22
2022-11-05T07:16:27.394Z,76.19
2022-11-05T07:19:24.863Z,76.07
2022-11-05T07:22:22.330Z,75.99
2022-11-05T07:25:20.738Z,75.94
2022-11-05T07:28:18.187Z,75.77
2022-11-05T07:31:15.629Z,75.85
2022-11-05T07:34:13.099Z,75.79
2022-11-05T07:37:10.537Z,75.75
2022-11-05T07:40:07.968Z,75.59
2022-11-05T07:43:05.397Z,75.64
2022-11-05T07:46:03.646Z,75.12
2022-11-05T07:49:01.107Z,75.27
2022-11-05T07:51:58.933Z,75.20
2022-11-05T07:54:57.254Z,75.09
2022-11-05T07:57:54.745Z,75.28
2022-11-05T08:00:52.287Z,74.99
2022-11-05T08:03:50.045Z,74.48
2022-11-05T08:06:47.502Z,74.28
2022-11-05T08:09:45.014Z,73.82
2022-11-05T08:12:42.472Z,74.05
2022-11-05T08:15:39.931Z,73.78
2022-11-05T08:18:37.383Z,73.29
2022-11-05T08:21:34.850Z,72.41
2022-11-05T08:24:32.287Z,72.22
2022-11-05T08:27:29.744Z,71.98
2022-11-05T08:30:27.199Z,71.72
2022-11-05T08:33:24.910Z,72.17
2022-11-05T08:36:22.366Z,71.27
2022-11-05T08:39:20.028Z,70.69
2022-11-05T08:42:17.472Z,70.68
2022-11-05T08:45:14.944Z,70.30
2022-11-05T08:48:12.442Z,69.65
2022-11-05T08:51:10.023Z,69.65
2022-11-05T08:54:07.499Z,69.45
2022-11-05T08:57:04.981Z,69.72
2022-11-05T09:00:02.471Z,69.51
2022-11-05T09:02:59.926Z,69.68
2022-11-05T09:05:57.386Z,69.34
2022-11-05T09:08:54.832Z,69.06
2022-11-05T09:15:10.426Z,69.15
2022-11-05T09:18:07.909Z,68.58
2022-11-05T09:21:05.395Z,68.53
2022-11-05T09:24:02.863Z,68.11
2022-11-05T09:27:00.315Z,67.76
2022-11-05T09:29:57.817Z,67.44
2022-11-05T09:32:55.269Z,67.77
2022-11-05T09:35:52.919Z,67.47
2022-11-05T09:38:50.381Z,66.88
2022-11-05T09:41:48.884Z,66.44
2022-11-05T09:44:47.779Z,66.23
2022-11-05T09:47:45.232Z,65.88
2022-11-05T09:50:42.671Z,66.30
2022-11-05T09:53:40.219Z,66.51
2022-11-05T09:56:38.078Z,65.69
2022-11-05T09:59:36.287Z,65.47
2022-11-05T10:02:33.905Z,65.42
2022-11-05T10:05:31.549Z,65.30
2022-11-05T10:08:29.507Z,65.00
2022-11-05T10:11:26.970Z,65.20
2022-11-05T10:14:24.571Z,65.32
2022-11-05T10:17:24.494Z,65.14
2022-11-05T10:20:23.522Z,65.35
2022-11-05T10:23:20.991Z,65.19
2022-11-05T10:26:18.445Z,65.22
2022-11-05T10:29:15.941Z,64.70
2022-11-05T10:32:13.392Z,64.25
2022-11-05T10:35:10.839Z,64.33
2022-11-05T10:38:08.308Z,64.15
2022-11-05T10:41:05.748Z,64.12
2022-11-05T10:44:03.225Z,63.84
2022-11-05T10:47:00.688Z,63.92
2022-11-05T10:49:58.709Z,63.92
2022-11-05T10:52:56.161Z,64.20
2022-11-05T10:55:54.341Z,64.48
2022-11-05T10:58:51.796Z,64.85
2022-11-05T11:01:49.332Z,64.93
2022-11-05T11:04:46.933Z,65.14
2022-11-05T11:07:44.378Z,65.36
2022-11-05T11:10:41.863Z,65.55
2022-11-05T11:13:39.417Z,65.77
2022-11-05T11:16:37.245Z,66.01
2022-11-05T11:19:34.727Z,66.12
2022-11-05T11:22:32.183Z,66.33
2022-11-05T11:25:29.655Z,66.41
2022-11-05T11:28:27.558Z,66.61
2022-11-05T11:31:25.067Z,66.95
2022-11-05T11:34:22.529Z,67.14
2022-11-05T11:37:20.098Z,67.27
2022-11-05T11:40:17.561Z,67.57
2022-11-05T11:43:15.026Z,67.72
2022-11-05T11:46:14.997Z,67.90
2022-11-05T11:49:13.354Z,67.99
2022-11-05T11:52:10.780Z,68.14
2022-11-05T11:55:08.298Z,68.30
2022-11-05T11:58:05.731Z,68.40
2022-11-05T12:01:03.512Z,68.58
2022-11-05T12:04:01.103Z,68.77
2022-11-05T12:06:58.566Z,68.83
2022-11-05T12:09:56.071Z,68.84
2022-11-05T12:12:53.537Z,68.89
2022-11-05T12:15:51.013Z,68.89
2022-11-05T12:18:48.449Z,68.94
2022-11-05T12:21:53.065Z,69.05
2022-11-05T12:24:51.095Z,69.08
2022-11-05T12:27:48.538Z,69.22
2022-11-05T12:30:46.153Z,69.31
2022-11-05T12:33:43.624Z,69.44
2022-11-05T12:36:41.104Z,69.45
2022-11-05T12:39:38.615Z,69.40
2022-11-05T12:42:36.089Z,69.48
2022-11-05T12:45:33.533Z,69.52
2022-11-05T12:48:36.734Z,69.51
2022-11-05T12:51:34.720Z,69.52
2022-11-05T12:54:32.173Z,69.38
2022-11-05T12:57:29.629Z,69.25
2022-11-05T13:00:27.093Z,69.35
2022-11-05T13:03:24.783Z,69.48
2022-11-05T13:06:22.250Z,69.51
2022-11-05T13:09:19.844Z,69.48
2022-11-05T13:12:17.408Z,69.47
2022-11-05T13:15:14.995Z,69.44
2022-11-05T13:18:12.451Z,69.37
2022-11-05T13:21:10.291Z,69.35
2022-11-05T13:24:07.767Z,69.32
2022-11-05T13:27:05.479Z,69.28
2022-11-05T13:30:03.740Z,69.37
2022-11-05T13:33:01.665Z,69.46
2022-11-05T13:36:13.028Z,69.38
2022-11-05T13:39:10.488Z,69.44
2022-11-05T13:42:07.963Z,69.42
2022-11-05T13:45:05.405Z,69.50
2022-11-05T13:48:02.862Z,69.60
2022-11-05T13:51:00.676Z,69.75
2022-11-05T13:53:58.481Z,69.72
2022-11-05T13:56:56.916Z,69.63
2022-11-05T13:59:54.406Z,69.68
2022-11-05T14:02:51.852Z,69.75
2022-11-05T14:05:49.304Z,69.83
2022-11-05T14:08:46.759Z,70.02
2022-11-05T14:11:44.624Z,70.26
2022-11-05T14:14:42.134Z,70.19
2022-11-05T14:17:39.598Z,70.34
2022-11-05T14:20:37.454Z,70.37
2022-11-05T14:23:35.270Z,70.45
2022-11-05T14:26:33.616Z,70.51
2022-11-05T14:29:31.125Z,70.49
2022-11-05T14:32:29.000Z,70.55
2022-11-05T14:35:26.864Z,71.00
2022-11-05T14:38:24.397Z,71.70
2022-11-05T14:41:21.877Z,72.06
2022-11-05T14:44:19.351Z,72.54
2022-11-05T14:47:19.726Z,72.66
2022-11-05T14:50:19.100Z,72.71
2022-11-05T14:53:16.587Z,72.95
2022-11-05T14:56:14.616Z,73.14
2022-11-05T14:59:13.817Z,73.01
2022-11-05T15:02:11.407Z,73.07
2022-11-05T15:05:10.019Z,72.96
2022-11-05T15:08:07.630Z,72.95
2022-11-05T15:11:05.566Z,73.03
2022-11-05T15:14:03.069Z,72.97
2022-11-05T15:17:01.514Z,73.00
2022-11-05T15:19:59.083Z,73.03
2022-11-05T15:22:56.769Z,73.04
2022-11-05T15:25:54.772Z,72.98
2022-11-05T15:28:52.836Z,72.93
2022-11-05T15:31:50.729Z,72.95
2022-11-05T15:34:48.364Z,73.01
2022-11-05T15:37:51.738Z,72.85
2022-11-05T15:40:52.624Z,72.86
2022-11-05T15:43:51.350Z,73.05
2022-11-05T15:46:50.776Z,72.92
2022-11-05T15:49:48.810Z,72.95
2022-11-05T15:52:46.881Z,73.13
2022-11-05T15:55:45.691Z,73.09
2022-11-05T15:58:52.529Z,73.18
2022-11-05T16:01:51.258Z,73.17
2022-11-05T16:04:48.882Z,73.17
2022-11-05T16:07:46.895Z,73.30
2022-11-05T16:10:46.200Z,73.37
2022-11-05T16:13:45.516Z,73.45
2022-11-05T16:16:43.489Z,73.56
2022-11-05T16:19:41.558Z,73.64
2022-11-05T16:22:39.530Z,73.77
2022-11-05T16:25:37.926Z,73.80
2022-11-05T16:28:37.010Z,73.99
2022-11-05T16:31:37.335Z,73.93
2022-11-05T16:34:35.281Z,73.88
2022-11-05T16:37:33.378Z,73.82
2022-11-05T16:40:31.281Z,74.02
2022-11-05T16:43:29.427Z,74.26
2022-11-05T16:46:27.469Z,74.03
2022-11-05T16:49:25.266Z,73.96
2022-11-05T16:52:23.064Z,74.00
2022-11-05T16:55:21.157Z,74.06
2022-11-05T16:58:19.978Z,74.07
2022-11-05T17:01:21.006Z,74.00
2022-11-05T17:04:19.987Z,73.96
2022-11-05T17:07:19.051Z,73.86
2022-11-05T17:10:20.477Z,73.93
2022-11-05T17:13:23.887Z,74.09
2022-11-05T17:16:27.388Z,74.15
2022-11-05T17:19:26.935Z,74.25
2022-11-05T17:22:28.681Z,74.36
2022-11-05T17:25:28.739Z,74.52
2022-11-05T17:28:30.770Z,74.49
2022-11-05T17:31:31.662Z,74.57
2022-11-05T17:34:30.861Z,74.62
2022-11-05T17:37:28.947Z,74.56
2022-11-05T17:40:29.176Z,74.56
2022-11-05T17:43:27.716Z,74.53
2022-11-05T17:46:26.759Z,74.53
2022-11-05T17:49:24.738Z,74.53
2022-11-05T17:52:22.979Z,74.60
2022-11-05T17:55:21.181Z,74.68
2022-11-05T17:58:19.069Z,74.73
2022-11-05T18:01:17.659Z,74.71
2022-11-05T18:04:16.325Z,74.76
2022-11-05T18:07:15.251Z,74.78
2022-11-05T18:10:17.998Z,74.92
2022-11-05T18:13:16.401Z,74.84
2022-11-05T18:16:14.740Z,74.73
2022-11-05T18:19:13.157Z,74.64
2022-11-05T18:22:16.197Z,74.66
2022-11-05T18:25:15.126Z,74.69
2022-11-05T18:28:13.809Z,74.67
2022-11-05T18:31:17.825Z,74.64
2022-11-05T18:34:16.980Z,74.55
2022-11-05T18:37:16.323Z,74.59
2022-11-05T18:40:14.908Z,74.60
2022-11-05T18:43:13.775Z,74.64
2022-11-05T18:46:29.285Z,74.61
2022-11-05T18:49:31.246Z,74.63
2022-11-05T18:52:33.526Z,74.60
2022-11-05T18:55:32.027Z,74.57
2022-11-05T18:58:30.486Z,74.66
2022-11-05T19:01:28.586Z,74.65
2022-11-05T19:04:27.361Z,74.56
2022-11-05T19:07:25.301Z,74.64
2022-11-05T19:10:23.113Z,74.64
2022-11-05T19:13:21.164Z,74.64
2022-11-05T19:16:21.349Z,74.66
2022-11-05T19:19:19.366Z,74.69
2022-11-05T19:22:17.699Z,74.74
2022-11-05T19:25:15.506Z,74.75
2022-11-05T19:28:13.819Z,74.78
2022-11-05T19:31:12.884Z,74.83
2022-11-05T19:34:11.566Z,74.90
2022-11-05T19:37:10.159Z,75.04
2022-11-05T19:40:08.632Z,75.05
2022-11-05T19:43:07.121Z,75.07
2022-11-05T19:46:07.933Z,75.08
2022-11-05T19:49:06.541Z,75.11
2022-11-05T19:52:05.234Z,75.13
2022-11-05T19:55:09.399Z,75.16
2022-11-05T19:58:11.207Z,75.18
2022-11-05T20:01:10.972Z,75.20
2022-11-05T20:04:09.708Z,75.22
2022-11-05T20:07:08.476Z,75.20
2022-11-05T20:10:10.240Z,75.24
2022-11-05T20:13:08.848Z,75.25
2022-11-05T20:16:07.122Z,75.16
2022-11-05T20:19:05.608Z,75.11
2022-11-05T20:22:05.560Z,75.12
2022-11-05T20:25:03.729Z,75.02
2022-11-05T20:28:02.483Z,75.04
2022-11-05T20:31:01.795Z,75.02
2022-11-05T20:34:00.681Z,75.05
2022-11-05T20:36:59.474Z,75.07
2022-11-05T20:39:57.489Z,75.08
2022-11-05T20:42:55.672Z,75.07
2022-11-05T20:45:54.153Z,75.19
2022-11-05T20:48:52.523Z,75.18
2022-11-05T20:51:51.073Z,75.26
2022-11-05T20:54:50.532Z,75.30
2022-11-05T20:57:48.973Z,75.40
2022-11-05T21:00:52.150Z,75.41
2022-11-05T21:03:50.431Z,75.48
2022-11-05T21:06:48.881Z,75.55
2022-11-05T21:09:47.286Z,75.58
2022-11-05T21:12:45.082Z,75.74
2022-11-05T21:15:45.527Z,75.82
2022-11-05T21:18:43.973Z,75.91
2022-11-05T21:21:42.405Z,75.94
2022-11-05T21:24:42.882Z,76.02
2022-11-05T21:27:43.809Z,75.97
2022-11-05T21:30:42.278Z,76.02
2022-11-05T21:33:40.787Z,76.05
2022-11-05T21:36:39.091Z,76.05
2022-11-05T21:39:37.008Z,76.09
2022-11-05T21:42:34.732Z,76.14
2022-11-05T21:45:32.653Z,76.18
2022-11-05T21:48:30.669Z,76.15
2022-11-05T21:51:45.860Z,76.19
2022-11-05T21:55:00.897Z,76.26
2022-11-05T21:58:16.040Z,76.26
2022-11-05T22:01:13.554Z,76.12
2022-11-05T22:04:11.802Z,76.17
2022-11-05T22:07:09.304Z,76.26
2022-11-05T22:10:07.569Z,76.32
2022-11-05T22:13:09.379Z,76.32
2022-11-05T22:16:06.805Z,76.35
2022-11-05T22:19:04.560Z,76.30
2022-11-05T22:22:02.018Z,76.38
2022-11-05T22:24:59.469Z,76.42
2022-11-05T22:27:56.935Z,76.43
2022-11-05T22:30:54.416Z,76.48
2022-11-05T22:33:51.936Z,76.66
2022-11-05T22:36:49.408Z,76.78
2022-11-05T22:39:46.916Z,76.84
2022-11-05T22:42:44.405Z,76.82
2022-11-05T22:45:43.940Z,76.83
2022-11-05T22:48:41.412Z,76.67
2022-11-05T22:51:39.359Z,76.62
2022-11-05T22:54:39.483Z,76.61
2022-11-05T22:57:37.121Z,76.54
2022-11-05T23:00:34.563Z,76.49
2022-11-05T23:03:32.035Z,76.51
2022-11-05T23:06:47.347Z,76.50
2022-11-05T23:10:02.758Z,76.44
2022-11-05T23:13:00.257Z,76.44
2022-11-05T23:16:15.715Z,76.45
2022-11-05T23:19:30.994Z,76.41
2022-11-05T23:22:51.580Z,76.43
2022-11-05T23:25:49.037Z,76.39
2022-11-05T23:28:46.470Z,76.39
2022-11-05T23:32:01.512Z,76.35
2022-11-05T23:34:58.978Z,76.34
2022-11-05T23:38:14.586Z,76.30
2022-11-05T23:41:30.065Z,76.30
2022-11-05T23:44:45.449Z,76.33
2022-11-05T23:48:00.939Z,76.34
2022-11-05T23:50:58.580Z,76.31
2022-11-05T23:53:56.035Z,76.34
2022-11-05T23:56:53.491Z,76.30
2022-11-05T23:59:51.043Z,76.35
